Weather at RAF Ascension Island

Public forecast

Using degrees Celsius for public forecast. Weather courtesy of forecast.io.

Closest aviation weather report (METAR) to RAF Ascension Island

Report is more than 6 hours old.

Closest report is Recife/Guararapes - Gilberto Freyre International Airport, 1,220.4 nm (2,260.1 km) W.

2022/11/14 15:00 (retrieved 2 years ago)

SBRF 141500Z 07008KT 020V110 9999 SCT020 FEW023TCU BKN050 29/22 Q1013

Closest aviation forecast (TAF) to RAF Ascension Island

Forecast is more than 12 hours old.

Closest forecast is Recife/Guararapes - Gilberto Freyre International Airport, 1,220.4 nm (2,260.1 km) W.

2023/02/22 18:00 (retrieved 1 year ago)

TAF SBRF 221623Z 2218/2318 12012KT 8000 SCT020 TN26/2308Z TX30/2316Z BECMG 2221/2224 12007KT TEMPO 2300/2311 15006KT 4000 RA BR BKN016 BECMG 2311/2313 12012KT RMK PHC